Time;durP1;ratioP1;P1;durP2;ratioP2;P2;SDS_P1;SDS_P2;PMS_P1;PMS_P2;Temp;Humidity;BMP_temperature;BMP_pressure;BME280_temperature;BME280_humidity;BME280_pressure;Samples;Min_cycle;Max_cycle;Signal;HPM_P1;HPM_P2
2022/02/28 00:01:23;;;;;;;6.35;1.60;;;;;;;18.75;40.42;101091.53;4937148;29;20031;-74
2022/02/28 00:03:54;;;;;;;9.55;2.05;;;;;;;18.76;40.27;101090.34;4937084;29;20039;-75
2022/02/28 00:06:20;;;;;;;7.32;2.08;;;;;;;18.60;40.71;101089.56;4936802;29;20048;-87
2022/02/28 00:08:46;;;;;;;10.73;1.80;;;;;;;18.70;40.58;101086.25;4936975;29;20035;-75
2022/02/28 00:11:12;;;;;;;5.10;1.48;;;;;;;18.85;40.26;101090.16;4937072;29;20028;-74
2022/02/28 00:13:38;;;;;;;7.55;1.55;;;;;;;18.63;40.61;101090.78;4936952;29;20024;-87
2022/02/28 00:16:05;;;;;;;5.90;1.77;;;;;;;18.91;40.11;101085.94;4936725;29;20422;-86
2022/02/28 00:18:32;;;;;;;7.55;2.10;;;;;;;18.60;40.73;101088.75;4936815;29;20032;-74
2022/02/28 00:20:58;;;;;;;6.15;1.48;;;;;;;18.73;40.60;101095.78;4936757;29;20031;-87
2022/02/28 00:23:24;;;;;;;7.13;1.45;;;;;;;18.87;40.18;101084.25;4936944;29;20083;-75
2022/02/28 00:25:50;;;;;;;8.50;1.60;;;;;;;18.83;40.23;101082.22;4936609;29;20024;-88
2022/02/28 00:28:16;;;;;;;7.70;2.50;;;;;;;18.70;40.61;101077.16;4936333;29;20106;-76
2022/02/28 00:30:42;;;;;;;5.43;2.28;;;;;;;18.83;40.51;101075.88;4936286;29;20469;-76
2022/02/28 00:33:08;;;;;;;7.63;2.00;;;;;;;18.73;40.84;101066.16;4936104;29;20051;-75
2022/02/28 00:35:34;;;;;;;6.10;1.80;;;;;;;18.78;40.77;101068.66;4936790;29;20042;-88
2022/02/28 00:38:00;;;;;;;6.25;1.55;;;;;;;18.59;41.29;101065.81;4936548;29;20019;-75
2022/02/28 00:40:26;;;;;;;6.55;1.65;;;;;;;18.76;40.96;101062.69;4936578;29;20027;-88
2022/02/28 00:42:51;;;;;;;5.93;1.30;;;;;;;18.76;41.00;101072.94;4936553;29;20032;-87
2022/02/28 00:45:17;;;;;;;11.82;2.47;;;;;;;18.90;40.79;101084.34;4935781;29;20036;-75
2022/02/28 00:47:43;;;;;;;4.80;2.08;;;;;;;18.94;40.66;101074.13;4936026;29;20427;-75
2022/02/28 00:50:10;;;;;;;5.35;1.48;;;;;;;18.78;41.07;101085.25;4936650;29;20454;-75
2022/02/28 00:52:36;;;;;;;3.78;1.40;;;;;;;18.87;40.84;101078.72;4936243;29;20475;-76
2022/02/28 00:55:03;;;;;;;4.68;1.05;;;;;;;18.82;40.93;101079.81;4919082;29;20039;-75
2022/02/28 00:57:29;;;;;;;6.05;1.48;;;;;;;19.02;40.41;101075.09;4936323;29;20063;-75
2022/02/28 00:59:55;;;;;;;4.22;1.10;;;;;;;18.88;40.96;101072.81;4936221;29;20027;-87
2022/02/28 01:02:20;;;;;;;2.85;0.80;;;;;;;19.04;40.59;101078.31;4936240;29;20039;-75
2022/02/28 01:04:47;;;;;;;4.82;1.20;;;;;;;18.99;40.61;101078.59;4936167;29;20046;-88
2022/02/28 01:07:13;;;;;;;3.13;1.70;;;;;;;19.01;40.72;101084.56;4935933;29;20024;-86
2022/02/28 01:09:39;;;;;;;4.07;1.20;;;;;;;19.03;40.67;101082.25;4935833;29;20036;-87
2022/02/28 01:12:07;;;;;;;4.70;1.10;;;;;;;19.00;40.69;101080.22;4935546;29;20031;-75
2022/02/28 01:14:34;;;;;;;4.10;1.00;;;;;;;18.92;40.81;101078.44;4935761;29;20031;-74
2022/02/28 01:17:00;;;;;;;2.35;0.88;;;;;;;19.06;40.62;101070.47;4935654;29;20020;-75
2022/02/28 01:19:26;;;;;;;3.75;1.25;;;;;;;19.21;40.34;101077.91;4935304;29;20046;-75
2022/02/28 01:21:51;;;;;;;4.53;0.52;;;;;;;19.22;40.16;101065.66;4918273;29;20553;-87
2022/02/28 01:24:17;;;;;;;7.18;1.38;;;;;;;19.12;40.50;101061.50;4935452;29;20098;-74
2022/02/28 01:26:45;;;;;;;3.70;1.17;;;;;;;19.15;40.61;101062.75;4935404;29;20055;-76
2022/02/28 01:29:11;;;;;;;3.95;1.25;;;;;;;19.00;41.12;101049.75;4935507;29;20027;-75
2022/02/28 01:31:37;;;;;;;2.67;0.60;;;;;;;19.03;41.41;101054.53;4935149;29;20035;-77
2022/02/28 01:34:03;;;;;;;2.05;0.80;;;;;;;18.91;41.56;101060.22;4935240;29;20024;-75
2022/02/28 01:36:29;;;;;;;6.05;0.90;;;;;;;19.16;41.01;101050.47;4935143;29;20387;-78
2022/02/28 01:38:55;;;;;;;1.75;0.60;;;;;;;19.07;41.37;101055.44;4935168;29;20024;-75
2022/02/28 01:41:20;;;;;;;5.60;1.60;;;;;;;19.05;41.55;101053.03;4935365;29;20441;-88
2022/02/28 01:43:46;;;;;;;0.90;0.50;;;;;;;18.99;41.73;101031.53;4935241;29;20032;-76
2022/02/28 01:46:12;;;;;;;0.50;0.35;;;;;;;19.21;41.31;101043.88;4934100;29;20468;-75
2022/02/28 01:48:37;;;;;;;1.77;0.60;;;;;;;19.09;41.61;101044.78;4935112;29;20036;-85
2022/02/28 01:51:03;;;;;;;4.82;0.80;;;;;;;19.13;41.63;101048.47;4934967;29;20164;-75
2022/02/28 01:53:29;;;;;;;2.08;0.60;;;;;;;19.20;41.33;101054.16;4935190;29;20091;-74
2022/02/28 01:55:55;;;;;;;1.33;0.40;;;;;;;18.95;42.22;101052.78;4935162;29;20434;-74
2022/02/28 01:58:20;;;;;;;0.73;0.40;;;;;;;19.16;41.58;101053.25;4938288;29;20368;-74
2022/02/28 02:00:46;;;;;;;3.22;0.57;;;;;;;19.25;41.43;101055.81;4938737;29;20032;-75
2022/02/28 02:03:12;;;;;;;0.90;0.40;;;;;;;19.22;41.71;101062.09;4938733;29;20038;-76
2022/02/28 02:05:37;;;;;;;2.08;0.55;;;;;;;19.31;41.46;101069.00;4938421;29;20048;-75
2022/02/28 02:08:10;;;;;;;0.98;0.47;;;;;;;19.22;41.84;101067.63;4938757;29;20059;-74
2022/02/28 02:10:36;;;;;;;1.10;0.40;;;;;;;19.27;41.72;101076.47;4938680;29;20042;-75
2022/02/28 02:13:02;;;;;;;4.97;0.93;;;;;;;19.31;41.62;101071.78;4938696;29;20036;-88
2022/02/28 02:15:29;;;;;;;0.65;0.40;;;;;;;19.32;41.79;101065.06;4938566;29;20475;-75
2022/02/28 02:17:57;;;;;;;2.95;0.50;;;;;;;19.30;41.77;101072.94;4938558;29;20490;-88
2022/02/28 02:20:23;;;;;;;2.08;0.47;;;;;;;19.32;41.55;101073.38;4938501;29;20035;-74
2022/02/28 02:22:55;;;;;;;4.00;0.60;;;;;;;19.28;41.87;101068.94;4938415;29;20024;-74
2022/02/28 02:25:21;;;;;;;2.97;0.50;;;;;;;19.37;41.54;101075.88;4938339;29;20024;-74
2022/02/28 02:27:47;;;;;;;2.72;0.63;;;;;;;19.14;42.15;101077.75;4938096;29;20486;-75
2022/02/28 02:30:13;;;;;;;2.63;0.73;;;;;;;19.22;41.72;101073.97;4936920;29;20067;-74
2022/02/28 02:32:40;;;;;;;1.80;0.60;;;;;;;19.15;42.01;101084.09;4938272;29;20455;-74
2022/02/28 02:35:07;;;;;;;1.98;0.73;;;;;;;19.19;41.87;101077.44;4938308;29;20024;-87
2022/02/28 02:37:32;;;;;;;3.40;0.60;;;;;;;18.91;42.61;101074.88;4938138;29;20032;-74
2022/02/28 02:39:58;;;;;;;1.88;1.10;;;;;;;19.15;41.77;101090.44;4938053;29;20035;-75
2022/02/28 02:42:23;;;;;;;4.07;0.80;;;;;;;19.03;42.04;101085.00;4938214;29;20032;-79
2022/02/28 02:44:49;;;;;;;3.13;0.70;;;;;;;19.00;41.93;101085.75;4936926;29;20027;-75
2022/02/28 02:47:15;;;;;;;1.70;0.70;;;;;;;19.04;41.95;101092.16;4936786;29;20402;-75
2022/02/28 02:49:40;;;;;;;5.18;0.70;;;;;;;18.84;42.56;101083.81;4937850;29;20435;-77
2022/02/28 02:52:06;;;;;;;2.35;0.93;;;;;;;18.74;42.73;101081.63;4937796;29;20078;-74
2022/02/28 02:54:32;;;;;;;1.63;0.77;;;;;;;18.68;42.95;101082.25;4938254;29;20027;-75
2022/02/28 02:56:58;;;;;;;4.05;1.30;;;;;;;18.75;42.56;101088.75;4937900;29;20027;-75
2022/02/28 02:59:24;;;;;;;4.50;0.90;;;;;;;18.66;42.84;101099.19;4937708;29;20027;-75
2022/02/28 03:01:49;;;;;;;2.08;0.82;;;;;;;18.77;42.59;101097.50;4937703;29;20024;-89
2022/02/28 03:04:15;;;;;;;2.97;0.98;;;;;;;18.75;42.79;101094.28;4937608;29;20032;-84
2022/02/28 03:06:41;;;;;;;4.63;1.25;;;;;;;18.69;43.00;101090.19;4937657;29;20051;-74
2022/02/28 03:09:12;;;;;;;3.10;0.77;;;;;;;18.69;43.34;101100.47;4937066;29;20031;-75
2022/02/28 03:11:43;;;;;;;3.72;0.80;;;;;;;18.55;43.44;101096.16;4937601;29;20031;-75
2022/02/28 03:14:10;;;;;;;5.38;0.95;;;;;;;18.44;43.98;101099.81;4920574;29;20399;-76
2022/02/28 03:16:36;;;;;;;5.03;0.77;;;;;;;18.62;43.24;101095.53;4937648;29;20030;-74
2022/02/28 03:19:03;;;;;;;5.35;1.02;;;;;;;18.48;43.71;101092.41;4920546;29;20036;-75
2022/02/28 03:21:28;;;;;;;2.50;0.73;;;;;;;18.70;43.25;101100.09;4937670;29;20107;-74
2022/02/28 03:23:54;;;;;;;3.15;0.73;;;;;;;18.66;43.38;101101.97;4937588;29;20140;-74
2022/02/28 03:26:19;;;;;;;7.18;1.02;;;;;;;18.58;43.70;101106.50;4938647;29;20035;-75
2022/02/28 03:28:45;;;;;;;3.60;0.68;;;;;;;18.62;43.42;101103.03;4937255;29;20565;-75
2022/02/28 03:31:11;;;;;;;1.25;0.52;;;;;;;18.70;43.42;101102.06;4937373;29;20031;-75
2022/02/28 03:33:37;;;;;;;1.75;0.73;;;;;;;18.60;43.66;101097.06;4937433;29;20379;-74
2022/02/28 03:36:03;;;;;;;6.47;0.98;;;;;;;18.52;43.86;101112.69;4937033;29;20383;-74
2022/02/28 03:38:28;;;;;;;3.20;0.93;;;;;;;18.53;44.03;101109.53;4937318;29;20024;-75
2022/02/28 03:40:54;;;;;;;4.20;0.85;;;;;;;18.67;43.78;101105.56;4936949;29;20038;-75
2022/02/28 03:43:21;;;;;;;5.18;1.17;;;;;;;18.51;44.27;101102.75;4937381;29;20028;-75
2022/02/28 03:45:46;;;;;;;5.55;1.02;;;;;;;18.63;43.99;101108.19;4937008;29;20110;-89
2022/02/28 03:48:13;;;;;;;5.82;1.13;;;;;;;18.48;44.63;101103.47;4937310;29;20482;-80
2022/02/28 03:50:40;;;;;;;4.00;0.70;;;;;;;18.51;44.27;101094.44;4937238;29;20140;-74
2022/02/28 03:53:05;;;;;;;2.20;0.80;;;;;;;18.65;43.92;101103.09;4936992;29;20406;-74
2022/02/28 03:55:31;;;;;;;3.25;0.82;;;;;;;18.60;44.20;101103.38;4936774;29;20103;-74
2022/02/28 03:57:57;;;;;;;2.78;0.65;;;;;;;18.57;44.42;101104.88;4936901;29;20495;-75
2022/02/28 04:00:22;;;;;;;2.97;0.60;;;;;;;18.61;44.36;101107.75;4936779;29;20382;-74
2022/02/28 04:02:48;;;;;;;4.90;0.80;;;;;;;18.62;44.41;101095.53;4936627;29;20043;-74
2022/02/28 04:05:14;;;;;;;3.47;0.70;;;;;;;18.70;44.45;101086.25;4936532;29;20580;-75
2022/02/28 04:07:41;;;;;;;1.45;0.50;;;;;;;18.76;44.13;101098.66;4937045;29;20047;-74
2022/02/28 04:10:07;;;;;;;2.70;0.70;;;;;;;18.67;44.33;101089.75;4936673;29;20554;-74
2022/02/28 04:12:32;;;;;;;1.83;0.93;;;;;;;18.64;44.53;101098.72;4919449;29;20406;-78
2022/02/28 04:14:58;;;;;;;2.00;1.02;;;;;;;18.65;44.48;101105.88;4935369;29;20028;-75
2022/02/28 04:17:23;;;;;;;5.45;0.75;;;;;;;18.62;44.71;101106.59;4935196;29;20028;-74
2022/02/28 04:19:49;;;;;;;4.35;0.70;;;;;;;18.66;44.49;101106.69;4934371;29;20098;-85
2022/02/28 04:22:15;;;;;;;3.15;0.75;;;;;;;18.65;44.55;101111.41;4935221;29;20455;-75
2022/02/28 04:24:41;;;;;;;1.88;0.45;;;;;;;18.77;44.37;101114.09;4935223;29;20075;-76
2022/02/28 04:27:07;;;;;;;2.65;0.65;;;;;;;18.76;44.21;101103.41;4918008;29;20042;-84
2022/02/28 04:29:32;;;;;;;2.08;0.70;;;;;;;18.81;44.12;101097.56;4935226;29;20332;-74
2022/02/28 04:32:00;;;;;;;4.25;0.80;;;;;;;18.75;44.50;101102.59;4934925;29;20395;-74
2022/02/28 04:34:27;;;;;;;4.72;0.90;;;;;;;18.82;44.16;101101.97;4935087;29;20039;-74
2022/02/28 04:36:52;;;;;;;4.00;0.70;;;;;;;18.64;44.86;101103.47;4932632;29;20024;-75
2022/02/28 04:39:18;;;;;;;2.58;0.70;;;;;;;18.83;44.28;101096.06;4934955;29;20031;-86
2022/02/28 04:41:44;;;;;;;1.98;0.50;;;;;;;18.69;44.70;101106.00;4934914;29;20024;-74
2022/02/28 04:44:09;;;;;;;3.97;0.60;;;;;;;18.73;44.54;101095.78;4934522;29;20032;-76
2022/02/28 04:46:35;;;;;;;1.85;0.80;;;;;;;18.81;44.40;101098.38;4917629;29;20032;-74
2022/02/28 04:49:01;;;;;;;6.07;0.80;;;;;;;18.84;44.31;101094.91;4933460;29;20035;-75
2022/02/28 04:51:26;;;;;;;1.92;0.60;;;;;;;18.75;44.71;101094.28;4934641;29;20040;-76
2022/02/28 04:53:52;;;;;;;1.35;0.45;;;;;;;18.74;44.77;101094.63;4934800;29;20087;-75
2022/02/28 04:56:18;;;;;;;7.65;0.80;;;;;;;18.80;44.50;101107.84;4934511;29;20121;-85
2022/02/28 04:58:43;;;;;;;0.95;0.50;;;;;;;18.81;44.59;101112.22;4934608;29;20023;-74
2022/02/28 05:01:09;;;;;;;2.17;0.82;;;;;;;18.68;45.09;101137.59;4934503;29;20618;-75
2022/02/28 05:03:34;;;;;;;4.20;0.82;;;;;;;18.71;45.12;101148.75;4934428;29;20023;-75
2022/02/28 05:06:00;;;;;;;1.63;0.90;;;;;;;18.81;44.57;101142.66;4934125;29;20511;-74
2022/02/28 05:08:26;;;;;;;2.92;1.30;;;;;;;18.84;44.73;101149.47;4934517;29;20027;-77
2022/02/28 05:10:51;;;;;;;4.15;2.05;;;;;;;18.95;44.83;101141.41;4917327;29;20072;-74
2022/02/28 05:13:17;;;;;;;1.45;1.00;;;;;;;19.05;44.30;101140.88;4934428;29;20023;-75
2022/02/28 05:15:43;;;;;;;3.10;1.27;;;;;;;19.00;44.65;101141.13;4934357;29;20024;-76
2022/02/28 05:18:08;;;;;;;5.00;0.98;;;;;;;19.06;44.47;101150.78;4934423;29;20019;-75
2022/02/28 05:20:34;;;;;;;2.47;0.65;;;;;;;19.15;44.40;101165.22;4934343;29;20493;-74
2022/02/28 05:22:59;;;;;;;2.70;0.70;;;;;;;19.18;44.42;101164.47;4934061;29;20020;-74
2022/02/28 05:25:26;;;;;;;7.20;1.30;;;;;;;19.18;44.43;101174.75;4934397;29;20028;-74
2022/02/28 05:27:52;;;;;;;1.60;0.70;;;;;;;19.20;44.57;101187.13;4934238;29;20027;-82
2022/02/28 05:30:18;;;;;;;0.70;0.45;;;;;;;19.20;44.38;101186.31;4934050;29;20550;-86
2022/02/28 05:32:44;;;;;;;0.80;0.30;;;;;;;19.18;44.54;101197.72;4934068;29;20367;-75
2022/02/28 05:35:13;;;;;;;13.63;1.30;;;;;;;19.22;44.43;101184.78;4934199;29;20066;-75
2022/02/28 05:37:40;;;;;;;4.67;1.07;;;;;;;19.05;45.21;101160.25;4934381;29;20386;-75
2022/02/28 05:40:08;;;;;;;6.78;1.52;;;;;;;19.22;44.61;101159.03;4934568;29;20270;-75
2022/02/28 05:42:34;;;;;;;12.70;2.28;;;;;;;19.17;44.78;101168.41;4931864;29;20019;-74
2022/02/28 05:45:00;;;;;;;20.38;4.25;;;;;;;19.22;44.60;101164.59;4917295;29;20083;-75
2022/02/28 05:47:25;;;;;;;11.80;3.13;;;;;;;19.20;44.54;101162.19;4934568;29;20434;-75
2022/02/28 05:49:51;;;;;;;14.23;3.38;;;;;;;19.24;44.56;101165.00;4934441;29;20074;-76
2022/02/28 05:52:16;;;;;;;16.20;2.72;;;;;;;19.24;44.61;101160.28;4934347;29;20106;-75
2022/02/28 05:54:42;;;;;;;13.50;3.42;;;;;;;19.20;44.57;101164.94;4934072;29;20050;-81
2022/02/28 05:57:07;;;;;;;22.23;3.38;;;;;;;19.23;44.52;101157.88;4916566;29;20527;-77
2022/02/28 05:59:33;;;;;;;15.65;3.17;;;;;;;19.18;44.58;101167.25;4917056;29;20083;-80
2022/02/28 06:01:59;;;;;;;18.08;2.83;;;;;;;19.19;44.64;101168.84;4917095;29;20039;-75
2022/02/28 06:04:25;;;;;;;16.73;2.95;;;;;;;19.13;44.91;101171.13;4933918;29;20054;-75
2022/02/28 06:06:51;;;;;;;18.20;3.85;;;;;;;19.21;44.57;101172.09;4933801;29;20071;-74
2022/02/28 06:09:17;;;;;;;18.10;3.05;;;;;;;19.25;44.56;101174.94;4933888;29;20027;-75
2022/02/28 06:11:42;;;;;;;17.10;3.15;;;;;;;19.13;44.73;101173.09;4933798;29;20038;-82
2022/02/28 06:14:08;;;;;;;11.43;2.40;;;;;;;19.18;44.67;101180.31;4936051;29;20028;-75
2022/02/28 06:16:33;;;;;;;9.70;2.72;;;;;;;19.17;44.76;101192.56;4934105;29;20086;-74
2022/02/28 06:18:59;;;;;;;14.77;2.80;;;;;;;19.13;44.83;101195.25;4916747;29;20024;-74
2022/02/28 06:21:25;;;;;;;13.38;2.72;;;;;;;19.15;44.77;101201.22;4933646;29;20024;-74
2022/02/28 06:23:50;;;;;;;14.57;2.90;;;;;;;19.19;44.59;101201.28;4933726;29;20030;-80
2022/02/28 06:26:16;;;;;;;10.57;2.58;;;;;;;19.11;44.43;101175.41;4933793;29;20367;-75
2022/02/28 06:28:41;;;;;;;13.02;3.47;;;;;;;19.10;44.47;101199.53;4933532;29;20036;-77
2022/02/28 06:31:07;;;;;;;18.02;4.18;;;;;;;19.03;44.67;101209.63;4933230;29;20067;-74
2022/02/28 06:33:33;;;;;;;7.07;1.70;;;;;;;19.04;44.51;101178.84;4929844;29;20038;-76
2022/02/28 06:36:00;;;;;;;13.90;2.10;;;;;;;18.99;44.56;101203.22;4916502;29;20034;-75
2022/02/28 06:38:26;;;;;;;9.55;2.88;;;;;;;18.99;44.50;101219.84;4933652;29;20024;-75
2022/02/28 06:40:52;;;;;;;9.32;2.42;;;;;;;18.89;44.73;101229.47;4933653;29;20534;-74
2022/02/28 06:43:24;;;;;;;8.18;1.75;;;;;;;18.84;44.68;101233.31;4934922;29;20554;-75
2022/02/28 06:45:52;;;;;;;10.60;2.00;;;;;;;18.90;44.35;101239.41;4919896;29;20446;-79
2022/02/28 06:48:18;;;;;;;7.38;1.80;;;;;;;18.83;44.45;101223.41;4936694;29;20419;-74
2022/02/28 06:50:45;;;;;;;4.95;1.27;;;;;;;18.72;44.81;101233.41;4936772;29;20416;-75
2022/02/28 06:53:22;;;;;;;6.53;1.80;;;;;;;18.74;44.67;101214.50;4936831;29;20023;-75
2022/02/28 06:55:49;;;;;;;14.77;3.00;;;;;;;18.68;44.81;101231.72;4937432;29;20023;-80
2022/02/28 06:58:15;;;;;;;11.45;2.78;;;;;;;18.64;44.68;101252.91;4937469;29;20027;-75
2022/02/28 07:00:41;;;;;;;10.05;2.03;;;;;;;18.61;44.59;101253.63;4937051;29;20026;-74
2022/02/28 07:03:07;;;;;;;10.45;1.77;;;;;;;18.68;44.73;101245.56;4937296;29;20383;-86
2022/02/28 07:05:33;;;;;;;11.73;3.00;;;;;;;18.68;44.79;101245.56;4936974;29;20043;-78
2022/02/28 07:07:59;;;;;;;9.68;2.85;;;;;;;18.65;44.81;101277.47;4920230;29;20030;-75
2022/02/28 07:10:25;;;;;;;12.43;3.15;;;;;;;18.72;44.90;101271.34;4937264;29;20027;-75
2022/02/28 07:12:51;;;;;;;19.42;3.33;;;;;;;18.72;44.81;101269.38;4937697;29;20035;-87
2022/02/28 07:15:16;;;;;;;7.32;2.33;;;;;;;18.74;44.71;101285.63;4937667;29;20154;-76
2022/02/28 07:17:42;;;;;;;10.27;2.58;;;;;;;18.71;44.92;101278.03;4920523;29;20479;-85
2022/02/28 07:20:09;;;;;;;6.72;2.40;;;;;;;18.73;44.89;101267.41;4919799;29;20455;-83
2022/02/28 07:22:35;;;;;;;15.80;3.28;;;;;;;18.70;44.87;101274.47;4920112;29;20482;-76
2022/02/28 07:25:00;;;;;;;14.20;2.58;;;;;;;18.70;44.88;101310.47;4937259;29;20039;-76
2022/02/28 07:27:26;;;;;;;9.98;2.83;;;;;;;18.71;44.85;101314.84;4920104;29;20055;-78
2022/02/28 07:29:52;;;;;;;10.52;3.25;;;;;;;18.68;45.05;101303.69;4937158;29;20079;-82
2022/02/28 07:32:17;;;;;;;13.13;3.28;;;;;;;18.67;45.14;101291.81;4937374;29;20031;-85
2022/02/28 07:34:43;;;;;;;14.25;3.58;;;;;;;18.73;44.86;101290.34;4937170;29;20138;-75
2022/02/28 07:37:09;;;;;;;13.98;4.18;;;;;;;18.62;45.36;101300.31;4937109;29;20074;-76
2022/02/28 07:39:34;;;;;;;23.52;5.13;;;;;;;18.68;45.29;101304.47;4937147;29;20034;-81
2022/02/28 07:42:00;;;;;;;10.38;3.50;;;;;;;18.75;45.14;101301.91;4920079;29;20028;-76
2022/02/28 07:44:27;;;;;;;16.45;3.30;;;;;;;18.76;45.08;101311.00;4936861;29;20467;-77
2022/02/28 07:46:53;;;;;;;16.42;4.68;;;;;;;18.77;45.08;101273.88;4936790;29;20024;-76
2022/02/28 07:49:19;;;;;;;15.27;3.50;;;;;;;18.64;45.42;101320.13;4936759;29;20522;-76
2022/02/28 07:51:45;;;;;;;20.48;4.45;;;;;;;18.78;45.17;101322.53;4933406;29;20031;-77
2022/02/28 07:54:10;;;;;;;29.65;6.13;;;;;;;18.78;45.00;101314.22;4934751;29;20506;-75
2022/02/28 07:56:36;;;;;;;11.32;2.95;;;;;;;18.67;45.30;101347.16;4935364;29;20082;-75
2022/02/28 07:59:02;;;;;;;16.13;3.42;;;;;;;18.64;45.37;101339.50;4936553;29;20063;-77
2022/02/28 08:01:27;;;;;;;19.88;4.13;;;;;;;18.63;45.55;101340.69;4931125;29;20059;-75
2022/02/28 08:03:53;;;;;;;14.68;3.65;;;;;;;18.69;45.32;101350.38;4921148;29;20477;-77
2022/02/28 08:06:19;;;;;;;19.90;4.40;;;;;;;18.77;45.19;101357.72;4903963;29;20171;-78
2022/02/28 08:08:44;;;;;;;15.25;4.43;;;;;;;18.81;45.15;101355.03;4921451;29;20024;-80
2022/02/28 08:11:10;;;;;;;18.35;3.83;;;;;;;18.88;45.11;101351.66;4920297;29;20035;-78
2022/02/28 08:13:35;;;;;;;21.98;7.15;;;;;;;18.87;45.14;101345.31;4920371;29;20060;-77
2022/02/28 08:16:01;;;;;;;16.92;3.80;;;;;;;18.85;45.38;101350.41;4903977;29;20035;-78
2022/02/28 08:18:27;;;;;;;14.02;3.03;;;;;;;18.95;45.38;101346.31;4920745;29;20019;-80
2022/02/28 08:20:53;;;;;;;14.70;3.03;;;;;;;18.92;45.26;101345.06;4920908;29;20094;-77
2022/02/28 08:23:19;;;;;;;13.30;3.08;;;;;;;18.93;45.30;101354.97;4919749;29;20028;-76
2022/02/28 08:25:45;;;;;;;17.98;4.07;;;;;;;19.01;45.32;101355.97;4918660;29;20063;-77
2022/02/28 08:28:12;;;;;;;16.38;4.13;;;;;;;18.98;45.39;101365.00;4918660;29;20055;-77
2022/02/28 08:30:38;;;;;;;12.25;3.97;;;;;;;19.10;45.16;101362.94;4920755;29;20051;-80
2022/02/28 08:33:04;;;;;;;19.65;4.47;;;;;;;19.12;45.34;101380.03;4924406;29;20083;-76
2022/02/28 08:35:30;;;;;;;16.92;4.05;;;;;;;19.17;45.19;101392.78;4936228;29;20023;-80
2022/02/28 08:37:56;;;;;;;14.45;4.15;;;;;;;19.25;45.20;101382.72;4935967;29;20461;-77
2022/02/28 08:40:22;;;;;;;21.65;4.57;;;;;;;19.23;45.35;101391.38;4920897;29;20051;-76
2022/02/28 08:42:48;;;;;;;19.35;3.60;;;;;;;19.28;45.25;101393.91;4919902;29;20407;-77
2022/02/28 08:45:14;;;;;;;16.73;4.05;;;;;;;19.34;45.30;101406.31;4932216;29;20034;-80
2022/02/28 08:47:39;;;;;;;21.23;4.63;;;;;;;19.24;45.57;101406.84;4928054;29;20036;-77
2022/02/28 08:50:07;;;;;;;21.23;5.57;;;;;;;19.45;45.10;101409.38;4920045;29;20118;-78
2022/02/28 08:52:33;;;;;;;17.13;4.35;;;;;;;19.41;45.11;101412.03;4919971;29;20929;-78
2022/02/28 08:55:00;;;;;;;16.85;4.00;;;;;;;19.48;45.12;101405.06;4929292;29;20036;-76
2022/02/28 08:57:26;;;;;;;15.68;3.95;;;;;;;19.50;44.99;101400.78;4935756;29;20518;-80
2022/02/28 08:59:51;;;;;;;13.27;3.58;;;;;;;19.57;45.07;101406.56;4935642;29;20063;-76
2022/02/28 09:02:17;;;;;;;29.45;6.50;;;;;;;19.57;45.03;101405.72;4935618;29;20476;-82
2022/02/28 09:04:43;;;;;;;21.35;5.22;;;;;;;19.59;45.23;101409.75;4935443;29;20087;-77
2022/02/28 09:07:09;;;;;;;24.38;4.95;;;;;;;19.74;44.84;101415.66;4935166;29;20027;-76
2022/02/28 09:09:34;;;;;;;16.70;4.82;;;;;;;19.71;45.00;101422.72;4929570;29;20475;-77
2022/02/28 09:12:00;;;;;;;25.25;4.63;;;;;;;19.68;45.14;101429.78;4918777;29;20101;-79
2022/02/28 09:14:26;;;;;;;22.70;4.07;;;;;;;19.78;44.90;101438.72;4922082;29;20107;-80
2022/02/28 09:16:51;;;;;;;22.23;4.03;;;;;;;19.85;44.77;101436.94;4935531;29;20438;-79
2022/02/28 09:19:17;;;;;;;25.67;4.80;;;;;;;19.87;44.73;101442.09;4935414;29;20032;-76
2022/02/28 09:21:43;;;;;;;23.70;5.57;;;;;;;19.84;44.66;101440.88;4930803;29;20060;-76
2022/02/28 09:24:08;;;;;;;24.95;5.85;;;;;;;19.86;44.78;101441.31;4919240;29;20083;-76
2022/02/28 09:26:36;;;;;;;20.45;4.97;;;;;;;19.87;44.69;101436.56;4919746;29;20036;-77
2022/02/28 09:29:02;;;;;;;22.73;5.47;;;;;;;19.86;44.76;101448.81;4919382;29;20130;-77
2022/02/28 09:31:27;;;;;;;28.90;7.20;;;;;;;19.84;44.59;101451.97;4917797;29;20031;-76
2022/02/28 09:33:53;;;;;;;24.85;5.93;;;;;;;19.95;44.48;101455.81;4918989;29;20040;-75
2022/02/28 09:36:18;;;;;;;22.15;4.97;;;;;;;19.99;44.31;101466.19;4919763;29;20030;-76
2022/02/28 09:38:44;;;;;;;35.47;6.45;;;;;;;19.99;44.32;101466.97;4918959;29;20027;-80
2022/02/28 09:41:10;;;;;;;21.17;5.47;;;;;;;19.93;44.67;101474.75;4919695;29;20028;-74
2022/02/28 09:43:36;;;;;;;21.92;6.03;;;;;;;19.97;44.38;101476.84;4918612;29;20035;-74
2022/02/28 09:46:03;;;;;;;17.10;5.07;;;;;;;19.94;44.17;101481.91;4919033;29;20910;-74
2022/02/28 09:48:32;;;;;;;24.23;5.22;;;;;;;19.90;44.38;101489.34;4919215;29;20542;-77
2022/02/28 09:50:57;;;;;;;21.30;5.10;;;;;;;19.91;44.26;101488.19;4928619;29;20034;-80
2022/02/28 09:53:23;;;;;;;25.17;5.57;;;;;;;19.92;44.14;101489.78;4934803;29;20027;-75
2022/02/28 09:55:49;;;;;;;18.70;4.90;;;;;;;20.03;44.14;101490.06;4931146;29;20078;-74
2022/02/28 09:58:14;;;;;;;17.10;4.53;;;;;;;20.04;43.71;101496.44;4933476;29;20487;-74
2022/02/28 10:00:43;;;;;;;23.33;5.35;;;;;;;20.08;43.58;101506.44;4934438;29;20115;-74
2022/02/28 10:03:09;;;;;;;21.70;5.03;;;;;;;20.10;43.64;101497.75;4934461;29;20122;-74
2022/02/28 10:05:35;;;;;;;21.67;5.57;;;;;;;20.01;43.91;101497.13;4934249;29;20368;-75
2022/02/28 10:08:06;;;;;;;19.95;5.60;;;;;;;20.08;43.64;101498.09;4934249;29;20034;-74
2022/02/28 10:10:34;;;;;;;19.50;5.43;;;;;;;20.07;43.39;101506.78;4933276;29;20187;-74
2022/02/28 10:13:01;;;;;;;27.77;5.90;;;;;;;20.07;43.41;101504.03;4933115;29;20031;-76
2022/02/28 10:15:27;;;;;;;24.75;5.65;;;;;;;20.16;43.16;101524.84;4932456;29;20023;-75
2022/02/28 10:18:01;;;;;;;29.52;7.10;;;;;;;20.03;43.23;101528.09;4932692;29;20032;-75
2022/02/28 10:20:28;;;;;;;17.00;4.60;;;;;;;20.10;43.12;101528.25;4936648;29;20027;-74
2022/02/28 10:22:57;;;;;;;21.98;6.00;;;;;;;20.02;43.03;101526.47;4936627;29;20036;-74
2022/02/28 10:25:30;;;;;;;34.58;8.85;;;;;;;20.06;42.92;101532.94;4937708;29;20032;-74
2022/02/28 10:28:09;;;;;;;20.92;5.05;;;;;;;20.09;42.92;101552.41;4936993;29;20049;-78
2022/02/28 10:30:35;;;;;;;22.90;5.05;;;;;;;20.13;42.64;101545.00;4938335;29;20042;-74
2022/02/28 10:33:12;;;;;;;17.55;5.18;;;;;;;20.11;42.85;101547.34;4937826;29;20035;-74
2022/02/28 10:36:01;;;;;;;20.23;6.35;;;;;;;20.10;42.80;101548.50;4938233;29;20037;-74
2022/02/28 10:38:31;;;;;;;33.92;6.88;;;;;;;20.19;42.75;101553.88;4952981;28;20035;-74
2022/02/28 10:40:57;;;;;;;;;;;;;;;20.02;42.81;101560.56;4938563;29;20027;-74
2022/02/28 10:43:29;;;;;;;22.13;5.47;;;;;;;20.18;42.73;101555.84;4938114;29;19915;-74
2022/02/28 10:45:57;;;;;;;26.13;5.57;;;;;;;20.23;42.43;101566.66;4936560;29;20027;-79
2022/02/28 10:48:24;;;;;;;29.15;6.18;;;;;;;20.29;42.33;101564.41;4937663;29;20442;-75
2022/02/28 10:50:50;;;;;;;22.90;6.68;;;;;;;20.28;42.53;101573.09;4937895;29;20387;-74
2022/02/28 10:53:23;;;;;;;27.42;5.63;;;;;;;20.24;42.32;101573.81;4937876;29;20034;-74
2022/02/28 10:55:51;;;;;;;20.33;5.35;;;;;;;20.20;42.29;101586.81;4937937;29;20023;-74
2022/02/28 10:58:24;;;;;;;27.20;7.22;;;;;;;20.40;41.89;101595.19;4937866;29;20415;-74
2022/02/28 11:01:16;;;;;;;23.00;5.45;;;;;;;20.25;42.37;101610.69;4937821;29;20078;-74
2022/02/28 11:03:51;;;;;;;24.13;6.00;;;;;;;20.43;41.90;101605.59;4934776;29;20050;-76
2022/02/28 11:06:24;;;;;;;27.58;6.07;;;;;;;20.44;41.59;101607.25;4937454;29;20099;-75
2022/02/28 11:08:52;;;;;;;28.15;5.75;;;;;;;20.51;42.05;101612.97;4937698;29;20023;-74
2022/02/28 11:11:17;;;;;;;21.38;5.85;;;;;;;20.54;41.61;101616.97;4937535;29;20031;-74
2022/02/28 11:13:44;;;;;;;22.50;6.15;;;;;;;20.57;41.60;101619.88;4937580;29;20106;-75
2022/02/28 11:16:13;;;;;;;27.27;6.13;;;;;;;20.50;41.62;101620.50;4935953;29;20023;-74
2022/02/28 11:18:40;;;;;;;26.20;5.72;;;;;;;20.56;41.34;101636.88;4937536;29;20027;-74